sensor_id;sensor_type;location;lat;lon;timestamp;pressure;altitude;pressure_sealevel;temperature;humidity
73453;BME280;61687;56.232;43.854;2024-01-30T00:01:55;101376.88;;;-2.05;74.08
73453;BME280;61687;56.232;43.854;2024-01-30T00:04:21;101378.13;;;-2.13;74.00
73453;BME280;61687;56.232;43.854;2024-01-30T00:06:46;101366.38;;;-2.07;74.27
73453;BME280;61687;56.232;43.854;2024-01-30T00:09:12;101371.16;;;-2.14;74.37
73453;BME280;61687;56.232;43.854;2024-01-30T00:11:39;101364.94;;;-2.14;74.32
73453;BME280;61687;56.232;43.854;2024-01-30T00:14:05;101359.94;;;-2.06;74.32
73453;BME280;61687;56.232;43.854;2024-01-30T00:16:31;101363.69;;;-2.07;74.23
73453;BME280;61687;56.232;43.854;2024-01-30T00:18:57;101356.72;;;-2.03;74.09
73453;BME280;61687;56.232;43.854;2024-01-30T00:21:23;101345.75;;;-2.01;74.37
73453;BME280;61687;56.232;43.854;2024-01-30T00:23:49;101348.47;;;-1.96;73.88
73453;BME280;61687;56.232;43.854;2024-01-30T00:26:15;101358.66;;;-1.98;74.26
73453;BME280;61687;56.232;43.854;2024-01-30T00:28:42;101360.00;;;-2.00;74.07
73453;BME280;61687;56.232;43.854;2024-01-30T00:31:08;101357.31;;;-2.00;74.11
73453;BME280;61687;56.232;43.854;2024-01-30T00:33:38;101349.25;;;-2.00;74.15
73453;BME280;61687;56.232;43.854;2024-01-30T00:36:05;101339.06;;;-1.98;73.95
73453;BME280;61687;56.232;43.854;2024-01-30T00:38:35;101340.91;;;-1.99;74.32
73453;BME280;61687;56.232;43.854;2024-01-30T00:41:01;101340.13;;;-1.99;74.32
73453;BME280;61687;56.232;43.854;2024-01-30T00:43:30;101342.75;;;-2.05;74.41
73453;BME280;61687;56.232;43.854;2024-01-30T00:45:57;101321.25;;;-2.05;74.53
73453;BME280;61687;56.232;43.854;2024-01-30T00:48:23;101324.47;;;-2.08;74.65
73453;BME280;61687;56.232;43.854;2024-01-30T00:50:49;101329.84;;;-2.08;74.78
73453;BME280;61687;56.232;43.854;2024-01-30T00:53:15;101319.69;;;-2.00;74.55
73453;BME280;61687;56.232;43.854;2024-01-30T00:55:41;101322.41;;;-1.95;74.48
73453;BME280;61687;56.232;43.854;2024-01-30T00:58:07;101331.00;;;-1.98;74.54
73453;BME280;61687;56.232;43.854;2024-01-30T01:00:33;101324.56;;;-1.97;74.76
73453;BME280;61687;56.232;43.854;2024-01-30T01:02:59;101319.22;;;-1.92;74.58
73453;BME280;61687;56.232;43.854;2024-01-30T01:05:25;101326.72;;;-1.94;74.60
73453;BME280;61687;56.232;43.854;2024-01-30T01:07:51;101324.63;;;-1.87;74.47
73453;BME280;61687;56.232;43.854;2024-01-30T01:10:17;101317.09;;;-1.85;74.51
73453;BME280;61687;56.232;43.854;2024-01-30T01:12:45;101314.38;;;-1.90;74.65
73453;BME280;61687;56.232;43.854;2024-01-30T01:15:12;101312.56;;;-1.84;74.67
73453;BME280;61687;56.232;43.854;2024-01-30T01:17:38;101319.53;;;-1.83;74.39
73453;BME280;61687;56.232;43.854;2024-01-30T01:20:05;101324.44;;;-1.75;74.26
73453;BME280;61687;56.232;43.854;2024-01-30T01:22:32;101316.38;;;-1.75;74.25
73453;BME280;61687;56.232;43.854;2024-01-30T01:25:00;101333.78;;;-1.83;74.56
73453;BME280;61687;56.232;43.854;2024-01-30T01:27:26;101314.97;;;-1.83;74.53
73453;BME280;61687;56.232;43.854;2024-01-30T01:29:52;101313.31;;;-1.89;74.64
73453;BME280;61687;56.232;43.854;2024-01-30T01:32:19;101297.75;;;-1.87;74.72
73453;BME280;61687;56.232;43.854;2024-01-30T01:34:45;101301.81;;;-1.84;74.88
73453;BME280;61687;56.232;43.854;2024-01-30T01:37:11;101301.28;;;-1.81;74.73
73453;BME280;61687;56.232;43.854;2024-01-30T01:39:37;101299.66;;;-1.82;74.88
73453;BME280;61687;56.232;43.854;2024-01-30T01:42:03;101304.28;;;-1.78;74.77
73453;BME280;61687;56.232;43.854;2024-01-30T01:44:29;101291.91;;;-1.79;74.72
73453;BME280;61687;56.232;43.854;2024-01-30T01:46:55;101308.06;;;-1.74;74.73
73453;BME280;61687;56.232;43.854;2024-01-30T01:49:25;101288.91;;;-1.82;74.95
73453;BME280;61687;56.232;43.854;2024-01-30T01:51:54;101292.47;;;-1.77;74.82
73453;BME280;61687;56.232;43.854;2024-01-30T01:54:23;101291.63;;;-1.77;75.07
73453;BME280;61687;56.232;43.854;2024-01-30T01:56:51;101290.59;;;-1.71;74.80
73453;BME280;61687;56.232;43.854;2024-01-30T01:59:18;101290.84;;;-1.78;75.17
73453;BME280;61687;56.232;43.854;2024-01-30T02:01:45;101284.34;;;-1.82;75.21
73453;BME280;61687;56.232;43.854;2024-01-30T02:04:16;101281.72;;;-1.77;75.22
73453;BME280;61687;56.232;43.854;2024-01-30T02:06:43;101280.13;;;-1.73;75.26
73453;BME280;61687;56.232;43.854;2024-01-30T02:09:09;101278.75;;;-1.70;75.17
73453;BME280;61687;56.232;43.854;2024-01-30T02:11:35;101279.84;;;-1.71;75.29
73453;BME280;61687;56.232;43.854;2024-01-30T02:14:05;101279.78;;;-1.81;75.39
73453;BME280;61687;56.232;43.854;2024-01-30T02:16:31;101274.72;;;-1.78;75.56
73453;BME280;61687;56.232;43.854;2024-01-30T02:18:57;101266.69;;;-1.73;75.36
73453;BME280;61687;56.232;43.854;2024-01-30T02:21:34;101279.34;;;-1.68;75.46
73453;BME280;61687;56.232;43.854;2024-01-30T02:24:01;101278.00;;;-1.65;75.34
73453;BME280;61687;56.232;43.854;2024-01-30T02:26:27;101274.47;;;-1.71;75.46
73453;BME280;61687;56.232;43.854;2024-01-30T02:28:53;101273.38;;;-1.70;75.69
73453;BME280;61687;56.232;43.854;2024-01-30T02:31:19;101269.66;;;-1.69;75.60
73453;BME280;61687;56.232;43.854;2024-01-30T02:33:45;101273.97;;;-1.63;75.50
73453;BME280;61687;56.232;43.854;2024-01-30T02:36:10;101277.75;;;-1.59;75.55
73453;BME280;61687;56.232;43.854;2024-01-30T02:38:36;101275.09;;;-1.53;75.29
73453;BME280;61687;56.232;43.854;2024-01-30T02:41:02;101278.31;;;-1.51;75.41
73453;BME280;61687;56.232;43.854;2024-01-30T02:43:28;101278.63;;;-1.48;75.23
73453;BME280;61687;56.232;43.854;2024-01-30T02:45:54;101274.31;;;-1.49;75.21
73453;BME280;61687;56.232;43.854;2024-01-30T02:48:19;101279.38;;;-1.58;75.47
73453;BME280;61687;56.232;43.854;2024-01-30T02:50:45;101271.06;;;-1.56;75.46
73453;BME280;61687;56.232;43.854;2024-01-30T02:53:12;101278.84;;;-1.54;75.56
73453;BME280;61687;56.232;43.854;2024-01-30T02:55:38;101282.63;;;-1.55;75.81
73453;BME280;61687;56.232;43.854;2024-01-30T02:58:04;101281.28;;;-1.53;75.64
73453;BME280;61687;56.232;43.854;2024-01-30T03:00:30;101270.00;;;-1.50;75.64
73453;BME280;61687;56.232;43.854;2024-01-30T03:02:56;101265.44;;;-1.49;75.64
73453;BME280;61687;56.232;43.854;2024-01-30T03:05:22;101264.94;;;-1.46;75.47
73453;BME280;61687;56.232;43.854;2024-01-30T03:07:47;101271.66;;;-1.38;75.50
73453;BME280;61687;56.232;43.854;2024-01-30T03:10:13;101275.94;;;-1.48;75.60
73453;BME280;61687;56.232;43.854;2024-01-30T03:12:39;101280.25;;;-1.41;75.55
73453;BME280;61687;56.232;43.854;2024-01-30T03:15:05;101272.19;;;-1.47;75.87
73453;BME280;61687;56.232;43.854;2024-01-30T03:17:31;101273.81;;;-1.40;75.74
73453;BME280;61687;56.232;43.854;2024-01-30T03:19:58;101276.81;;;-1.32;75.56
73453;BME280;61687;56.232;43.854;2024-01-30T03:22:24;101268.19;;;-1.34;75.35
73453;BME280;61687;56.232;43.854;2024-01-30T03:24:49;101278.41;;;-1.31;75.64
73453;BME280;61687;56.232;43.854;2024-01-30T03:27:15;101277.88;;;-1.27;75.45
73453;BME280;61687;56.232;43.854;2024-01-30T03:29:41;101280.06;;;-1.24;75.39
73453;BME280;61687;56.232;43.854;2024-01-30T03:32:07;101270.09;;;-1.29;75.23
73453;BME280;61687;56.232;43.854;2024-01-30T03:34:33;101270.88;;;-1.34;75.60
73453;BME280;61687;56.232;43.854;2024-01-30T03:36:59;101271.72;;;-1.23;75.49
73453;BME280;61687;56.232;43.854;2024-01-30T03:39:24;101269.34;;;-1.19;75.43
73453;BME280;61687;56.232;43.854;2024-01-30T03:41:50;101265.25;;;-1.27;75.50
73453;BME280;61687;56.232;43.854;2024-01-30T03:44:16;101269.59;;;-1.21;75.51
73453;BME280;61687;56.232;43.854;2024-01-30T03:46:42;101263.09;;;-1.30;75.89
73453;BME280;61687;56.232;43.854;2024-01-30T03:49:09;101258.28;;;-1.28;75.89
73453;BME280;61687;56.232;43.854;2024-01-30T03:51:35;101269.88;;;-1.22;75.87
73453;BME280;61687;56.232;43.854;2024-01-30T03:54:00;101260.72;;;-1.21;75.82
73453;BME280;61687;56.232;43.854;2024-01-30T03:56:26;101253.19;;;-1.19;75.81
73453;BME280;61687;56.232;43.854;2024-01-30T03:58:52;101250.25;;;-1.07;75.70
73453;BME280;61687;56.232;43.854;2024-01-30T04:01:18;101254.81;;;-1.08;75.48
73453;BME280;61687;56.232;43.854;2024-01-30T04:03:44;101253.22;;;-1.09;75.57
73453;BME280;61687;56.232;43.854;2024-01-30T04:06:10;101244.84;;;-1.18;75.96
73453;BME280;61687;56.232;43.854;2024-01-30T04:08:37;101243.53;;;-1.10;75.79
73453;BME280;61687;56.232;43.854;2024-01-30T04:11:04;101237.34;;;-1.16;76.08
73453;BME280;61687;56.232;43.854;2024-01-30T04:13:32;101233.28;;;-1.18;76.26
73453;BME280;61687;56.232;43.854;2024-01-30T04:16:02;101246.22;;;-1.10;76.14
73453;BME280;61687;56.232;43.854;2024-01-30T04:18:29;101236.03;;;-1.03;75.91
73453;BME280;61687;56.232;43.854;2024-01-30T04:20:56;101234.41;;;-0.98;75.94
73453;BME280;61687;56.232;43.854;2024-01-30T04:23:22;101225.25;;;-1.03;76.04
73453;BME280;61687;56.232;43.854;2024-01-30T04:25:48;101239.50;;;-0.97;76.03
73453;BME280;61687;56.232;43.854;2024-01-30T04:28:14;101247.63;;;-0.87;75.82
73453;BME280;61687;56.232;43.854;2024-01-30T04:30:40;101247.34;;;-0.85;75.76
73453;BME280;61687;56.232;43.854;2024-01-30T04:33:06;101250.31;;;-0.81;75.87
73453;BME280;61687;56.232;43.854;2024-01-30T04:35:32;101254.38;;;-0.84;75.94
73453;BME280;61687;56.232;43.854;2024-01-30T04:37:58;101247.91;;;-0.83;76.04
73453;BME280;61687;56.232;43.854;2024-01-30T04:40:24;101247.34;;;-0.90;76.47
73453;BME280;61687;56.232;43.854;2024-01-30T04:42:49;101238.47;;;-0.80;76.19
73453;BME280;61687;56.232;43.854;2024-01-30T04:45:15;101254.09;;;-0.77;76.35
73453;BME280;61687;56.232;43.854;2024-01-30T04:47:41;101251.38;;;-0.77;76.55
73453;BME280;61687;56.232;43.854;2024-01-30T04:50:07;101246.53;;;-0.80;77.04
73453;BME280;61687;56.232;43.854;2024-01-30T04:52:35;101224.47;;;-0.77;77.21
73453;BME280;61687;56.232;43.854;2024-01-30T04:55:01;101235.81;;;-0.70;77.33
73453;BME280;61687;56.232;43.854;2024-01-30T04:57:30;101229.88;;;-0.72;77.62
73453;BME280;61687;56.232;43.854;2024-01-30T04:59:57;101239.56;;;-0.71;78.01
73453;BME280;61687;56.232;43.854;2024-01-30T05:02:23;101226.66;;;-0.59;77.90
73453;BME280;61687;56.232;43.854;2024-01-30T05:04:49;101227.19;;;-0.56;77.84
73453;BME280;61687;56.232;43.854;2024-01-30T05:07:14;101238.78;;;-0.56;77.85
73453;BME280;61687;56.232;43.854;2024-01-30T05:09:40;101232.56;;;-0.56;77.96
73453;BME280;61687;56.232;43.854;2024-01-30T05:12:07;101233.38;;;-0.56;78.25
73453;BME280;61687;56.232;43.854;2024-01-30T05:14:32;101226.63;;;-0.53;78.12
73453;BME280;61687;56.232;43.854;2024-01-30T05:16:58;101239.84;;;-0.47;78.22
73453;BME280;61687;56.232;43.854;2024-01-30T05:19:24;101225.03;;;-0.44;78.14
73453;BME280;61687;56.232;43.854;2024-01-30T05:21:50;101228.81;;;-0.45;78.10
73453;BME280;61687;56.232;43.854;2024-01-30T05:24:16;101226.09;;;-0.35;77.89
73453;BME280;61687;56.232;43.854;2024-01-30T05:26:42;101223.41;;;-0.35;77.93
73453;BME280;61687;56.232;43.854;2024-01-30T05:29:08;101226.91;;;-0.29;77.74
73453;BME280;61687;56.232;43.854;2024-01-30T05:31:34;101241.19;;;-0.23;77.85
73453;BME280;61687;56.232;43.854;2024-01-30T05:34:00;101239.03;;;-0.21;77.66
73453;BME280;61687;56.232;43.854;2024-01-30T05:36:26;101231.75;;;-0.16;77.45
73453;BME280;61687;56.232;43.854;2024-01-30T05:38:52;101236.06;;;-0.15;77.54
73453;BME280;61687;56.232;43.854;2024-01-30T05:41:19;101242.78;;;-0.17;77.66
73453;BME280;61687;56.232;43.854;2024-01-30T05:43:47;101238.22;;;-0.11;77.61
73453;BME280;61687;56.232;43.854;2024-01-30T05:46:13;101245.47;;;-0.07;77.42
73453;BME280;61687;56.232;43.854;2024-01-30T05:48:39;101244.16;;;-0.20;77.85
73453;BME280;61687;56.232;43.854;2024-01-30T05:51:05;101240.34;;;-0.08;77.76
73453;BME280;61687;56.232;43.854;2024-01-30T05:53:32;101240.06;;;0.04;77.36
73453;BME280;61687;56.232;43.854;2024-01-30T05:56:00;101235.72;;;0.08;77.02
73453;BME280;61687;56.232;43.854;2024-01-30T05:58:26;101243.53;;;0.14;76.80
73453;BME280;61687;56.232;43.854;2024-01-30T06:00:52;101243.81;;;0.18;77.07
73453;BME280;61687;56.232;43.854;2024-01-30T06:03:18;101251.63;;;0.14;76.97
73453;BME280;61687;56.232;43.854;2024-01-30T06:05:44;101254.09;;;0.11;77.20
73453;BME280;61687;56.232;43.854;2024-01-30T06:08:10;101251.63;;;0.14;77.13
73453;BME280;61687;56.232;43.854;2024-01-30T06:10:35;101255.41;;;0.08;77.31
73453;BME280;61687;56.232;43.854;2024-01-30T06:13:01;101255.13;;;0.20;77.23
73453;BME280;61687;56.232;43.854;2024-01-30T06:15:27;101247.28;;;0.19;77.02
73453;BME280;61687;56.232;43.854;2024-01-30T06:17:55;101250.53;;;0.16;77.21
73453;BME280;61687;56.232;43.854;2024-01-30T06:20:21;101258.06;;;0.19;77.16
73453;BME280;61687;56.232;43.854;2024-01-30T06:22:47;101249.19;;;0.18;77.36
73453;BME280;61687;56.232;43.854;2024-01-30T06:25:12;101264.84;;;0.16;77.32
73453;BME280;61687;56.232;43.854;2024-01-30T06:27:38;101253.47;;;0.30;77.28
73453;BME280;61687;56.232;43.854;2024-01-30T06:30:05;101258.56;;;0.36;77.17
73453;BME280;61687;56.232;43.854;2024-01-30T06:32:31;101263.69;;;0.43;76.90
73453;BME280;61687;56.232;43.854;2024-01-30T06:35:00;101270.13;;;0.47;76.87
73453;BME280;61687;56.232;43.854;2024-01-30T06:37:27;101266.88;;;0.50;76.58
73453;BME280;61687;56.232;43.854;2024-01-30T06:39:53;101276.34;;;0.53;76.41
73453;BME280;61687;56.232;43.854;2024-01-30T06:42:19;101269.84;;;0.54;76.53
73453;BME280;61687;56.232;43.854;2024-01-30T06:44:45;101277.66;;;0.61;76.43
73453;BME280;61687;56.232;43.854;2024-01-30T06:47:11;101268.75;;;0.65;76.15
73453;BME280;61687;56.232;43.854;2024-01-30T06:49:36;101288.16;;;0.67;75.99
73453;BME280;61687;56.232;43.854;2024-01-30T06:52:06;101284.69;;;0.56;76.49
73453;BME280;61687;56.232;43.854;2024-01-30T06:54:32;101275.53;;;0.47;76.86
73453;BME280;61687;56.232;43.854;2024-01-30T06:56:58;101286.53;;;0.61;76.51
73453;BME280;61687;56.232;43.854;2024-01-30T06:59:24;101281.94;;;0.67;76.35
73453;BME280;61687;56.232;43.854;2024-01-30T07:01:50;101284.91;;;0.70;76.35
73453;BME280;61687;56.232;43.854;2024-01-30T07:04:16;101277.09;;;0.64;76.43
73453;BME280;61687;56.232;43.854;2024-01-30T07:06:42;101285.13;;;0.79;76.21
73453;BME280;61687;56.232;43.854;2024-01-30T07:09:08;101276.75;;;0.81;76.07
73453;BME280;61687;56.232;43.854;2024-01-30T07:11:34;101284.28;;;0.89;75.85
73453;BME280;61687;56.232;43.854;2024-01-30T07:14:00;101290.50;;;0.84;75.91
73453;BME280;61687;56.232;43.854;2024-01-30T07:16:25;101287.53;;;0.86;75.94
73453;BME280;61687;56.232;43.854;2024-01-30T07:18:51;101288.31;;;0.92;75.77
73453;BME280;61687;56.232;43.854;2024-01-30T07:21:18;101291.75;;;1.03;75.75
73453;BME280;61687;56.232;43.854;2024-01-30T07:23:44;101284.47;;;1.03;75.48
73453;BME280;61687;56.232;43.854;2024-01-30T07:26:10;101296.38;;;1.02;75.54
73453;BME280;61687;56.232;43.854;2024-01-30T07:28:36;101299.56;;;1.09;75.58
73453;BME280;61687;56.232;43.854;2024-01-30T07:31:02;101309.25;;;1.10;75.46
73453;BME280;61687;56.232;43.854;2024-01-30T07:33:28;101315.25;;;1.02;75.81
73453;BME280;61687;56.232;43.854;2024-01-30T07:35:54;101308.28;;;0.91;76.17
73453;BME280;61687;56.232;43.854;2024-01-30T07:38:20;101305.84;;;0.94;76.26
73453;BME280;61687;56.232;43.854;2024-01-30T07:40:46;101292.63;;;0.88;76.70
73453;BME280;61687;56.232;43.854;2024-01-30T07:43:12;101302.34;;;0.89;76.60
73453;BME280;61687;56.232;43.854;2024-01-30T07:45:38;101312.03;;;1.00;76.48
73453;BME280;61687;56.232;43.854;2024-01-30T07:48:05;101312.59;;;0.92;76.64
73453;BME280;61687;56.232;43.854;2024-01-30T07:50:31;101309.06;;;0.96;76.63
73453;BME280;61687;56.232;43.854;2024-01-30T07:52:59;101304.13;;;1.14;76.33
73453;BME280;61687;56.232;43.854;2024-01-30T07:55:25;101307.09;;;1.18;76.17
73453;BME280;61687;56.232;43.854;2024-01-30T07:57:57;101311.28;;;1.34;75.47
73453;BME280;61687;56.232;43.854;2024-01-30T08:00:24;101319.94;;;1.31;75.59
73453;BME280;61687;56.232;43.854;2024-01-30T08:02:50;101309.97;;;1.32;75.82
73453;BME280;61687;56.232;43.854;2024-01-30T08:05:16;101322.88;;;1.40;75.50
73453;BME280;61687;56.232;43.854;2024-01-30T08:07:42;101329.09;;;1.40;75.55
73453;BME280;61687;56.232;43.854;2024-01-30T08:10:08;101327.16;;;1.46;75.24
73453;BME280;61687;56.232;43.854;2024-01-30T08:12:34;101333.63;;;1.50;75.17
73453;BME280;61687;56.232;43.854;2024-01-30T08:15:00;101317.91;;;1.57;75.00
73453;BME280;61687;56.232;43.854;2024-01-30T08:17:26;101330.63;;;1.52;75.08
73453;BME280;61687;56.232;43.854;2024-01-30T08:19:51;101324.44;;;1.51;75.05
73453;BME280;61687;56.232;43.854;2024-01-30T08:22:17;101329.97;;;1.31;75.65
73453;BME280;61687;56.232;43.854;2024-01-30T08:24:43;101318.56;;;1.39;75.63
73453;BME280;61687;56.232;43.854;2024-01-30T08:27:09;101309.66;;;1.38;75.72
73453;BME280;61687;56.232;43.854;2024-01-30T08:29:35;101313.44;;;1.37;75.50
73453;BME280;61687;56.232;43.854;2024-01-30T08:32:01;101312.25;;;1.54;75.17
73453;BME280;61687;56.232;43.854;2024-01-30T08:34:28;101303.56;;;1.62;75.22
73453;BME280;61687;56.232;43.854;2024-01-30T08:36:53;101297.25;;;1.72;74.96
73453;BME280;61687;56.232;43.854;2024-01-30T08:39:19;101294.72;;;1.86;74.60
73453;BME280;61687;56.232;43.854;2024-01-30T08:41:45;101293.94;;;1.80;74.60
73453;BME280;61687;56.232;43.854;2024-01-30T08:44:11;101283.13;;;1.80;74.62
73453;BME280;61687;56.232;43.854;2024-01-30T08:46:37;101304.66;;;1.91;74.46
73453;BME280;61687;56.232;43.854;2024-01-30T08:49:03;101318.22;;;1.85;74.50
73453;BME280;61687;56.232;43.854;2024-01-30T08:51:32;101320.56;;;1.63;74.96
73453;BME280;61687;56.232;43.854;2024-01-30T08:53:58;101315.50;;;1.51;75.49
73453;BME280;61687;56.232;43.854;2024-01-30T08:56:23;101312.50;;;1.57;75.49
73453;BME280;61687;56.232;43.854;2024-01-30T08:58:49;101324.66;;;1.55;75.63
73453;BME280;61687;56.232;43.854;2024-01-30T09:01:15;101324.59;;;1.65;75.42
73453;BME280;61687;56.232;43.854;2024-01-30T09:03:41;101318.84;;;1.77;75.11
73453;BME280;61687;56.232;43.854;2024-01-30T09:06:12;101309.03;;;1.86;74.72
73453;BME280;61687;56.232;43.854;2024-01-30T09:08:38;101304.38;;;1.92;74.61
73453;BME280;61687;56.232;43.854;2024-01-30T09:11:14;101315.81;;;1.84;74.71
73453;BME280;61687;56.232;43.854;2024-01-30T09:13:40;101305.47;;;1.91;74.38
73453;BME280;61687;56.232;43.854;2024-01-30T09:16:07;101319.41;;;1.74;74.81
73453;BME280;61687;56.232;43.854;2024-01-30T09:18:32;101333.72;;;1.75;75.00
73453;BME280;61687;56.232;43.854;2024-01-30T09:20:58;101329.13;;;1.75;74.89
73453;BME280;61687;56.232;43.854;2024-01-30T09:23:27;101334.72;;;1.84;74.49
73453;BME280;61687;56.232;43.854;2024-01-30T09:25:53;101323.63;;;1.85;74.44
73453;BME280;61687;56.232;43.854;2024-01-30T09:28:19;101323.56;;;1.91;74.16
73453;BME280;61687;56.232;43.854;2024-01-30T09:30:45;101316.81;;;1.93;74.09
73453;BME280;61687;56.232;43.854;2024-01-30T09:33:11;101316.53;;;1.95;74.06
73453;BME280;61687;56.232;43.854;2024-01-30T09:35:37;101327.34;;;1.95;74.09
73453;BME280;61687;56.232;43.854;2024-01-30T09:38:03;101326.53;;;1.94;74.05
73453;BME280;61687;56.232;43.854;2024-01-30T09:40:29;101337.38;;;1.89;74.19
73453;BME280;61687;56.232;43.854;2024-01-30T09:42:55;101322.13;;;2.04;73.73
73453;BME280;61687;56.232;43.854;2024-01-30T09:45:25;101327.94;;;1.86;74.18
73453;BME280;61687;56.232;43.854;2024-01-30T09:47:51;101329.38;;;2.08;73.78
73453;BME280;61687;56.232;43.854;2024-01-30T09:50:18;101331.94;;;1.94;73.79
73453;BME280;61687;56.232;43.854;2024-01-30T09:52:44;101331.50;;;2.11;73.43
73453;BME280;61687;56.232;43.854;2024-01-30T09:55:11;101328.16;;;2.25;73.21
73453;BME280;61687;56.232;43.854;2024-01-30T09:57:37;101328.53;;;2.42;72.70
73453;BME280;61687;56.232;43.854;2024-01-30T10:00:04;101332.00;;;2.43;71.90
73453;BME280;61687;56.232;43.854;2024-01-30T10:02:38;101322.50;;;2.21;72.54
73453;BME280;61687;56.232;43.854;2024-01-30T10:05:05;101333.75;;;2.34;72.11
73453;BME280;61687;56.232;43.854;2024-01-30T10:07:31;101343.72;;;2.38;71.76
73453;BME280;61687;56.232;43.854;2024-01-30T10:09:58;101350.34;;;2.22;71.63
73453;BME280;61687;56.232;43.854;2024-01-30T10:12:26;101346.41;;;2.38;71.47
73453;BME280;61687;56.232;43.854;2024-01-30T10:14:52;101350.50;;;2.36;71.52
73453;BME280;61687;56.232;43.854;2024-01-30T10:17:18;101348.38;;;2.33;71.84
73453;BME280;61687;56.232;43.854;2024-01-30T10:19:43;101348.25;;;2.43;71.01
73453;BME280;61687;56.232;43.854;2024-01-30T10:22:10;101336.81;;;2.51;71.05
73453;BME280;61687;56.232;43.854;2024-01-30T10:24:36;101339.97;;;2.58;70.53
73453;BME280;61687;56.232;43.854;2024-01-30T10:27:02;101340.03;;;2.53;70.26
73453;BME280;61687;56.232;43.854;2024-01-30T10:29:28;101345.19;;;2.55;70.69
73453;BME280;61687;56.232;43.854;2024-01-30T10:32:12;101343.25;;;2.55;69.93
73453;BME280;61687;56.232;43.854;2024-01-30T10:34:38;101342.06;;;2.67;69.64
73453;BME280;61687;56.232;43.854;2024-01-30T10:37:09;101351.25;;;2.90;69.26
73453;BME280;61687;56.232;43.854;2024-01-30T10:39:45;101351.84;;;2.87;68.51
73453;BME280;61687;56.232;43.854;2024-01-30T10:42:13;101349.06;;;2.92;68.86
73453;BME280;61687;56.232;43.854;2024-01-30T10:45:08;101350.66;;;2.74;68.94
73453;BME280;61687;56.232;43.854;2024-01-30T10:47:35;101350.09;;;2.96;68.19
73453;BME280;61687;56.232;43.854;2024-01-30T10:50:02;101354.59;;;3.06;68.20
73453;BME280;61687;56.232;43.854;2024-01-30T10:52:30;101357.09;;;3.03;67.91
73453;BME280;61687;56.232;43.854;2024-01-30T10:54:57;101364.63;;;3.06;68.20
73453;BME280;61687;56.232;43.854;2024-01-30T10:57:24;101353.34;;;2.98;68.19
73453;BME280;61687;56.232;43.854;2024-01-30T10:59:51;101365.66;;;2.85;68.01
73453;BME280;61687;56.232;43.854;2024-01-30T11:02:18;101361.66;;;2.83;68.21
73453;BME280;61687;56.232;43.854;2024-01-30T11:04:45;101357.72;;;2.94;67.80
73453;BME280;61687;56.232;43.854;2024-01-30T11:07:18;101362.91;;;2.91;67.94
73453;BME280;61687;56.232;43.854;2024-01-30T11:12:33;101363.97;;;3.14;67.38
73453;BME280;61687;56.232;43.854;2024-01-30T11:15:07;101368.38;;;2.85;67.49
73453;BME280;61687;56.232;43.854;2024-01-30T11:20:15;101361.84;;;3.11;67.13
73453;BME280;61687;56.232;43.854;2024-01-30T11:22:51;101362.78;;;3.01;67.12
73453;BME280;61687;56.232;43.854;2024-01-30T11:25:20;101378.34;;;2.90;66.55
73453;BME280;61687;56.232;43.854;2024-01-30T11:27:47;101369.94;;;2.92;67.33
73453;BME280;61687;56.232;43.854;2024-01-30T11:30:25;101366.03;;;2.79;67.48
73453;BME280;61687;56.232;43.854;2024-01-30T11:33:11;101365.72;;;2.80;67.53
73453;BME280;61687;56.232;43.854;2024-01-30T11:35:41;101385.44;;;2.86;67.32
73453;BME280;61687;56.232;43.854;2024-01-30T11:38:09;101377.88;;;2.83;67.53
73453;BME280;61687;56.232;43.854;2024-01-30T11:40:38;101384.44;;;3.01;67.52
73453;BME280;61687;56.232;43.854;2024-01-30T11:43:05;101388.72;;;2.83;67.30
73453;BME280;61687;56.232;43.854;2024-01-30T11:45:32;101392.03;;;2.75;67.92
73453;BME280;61687;56.232;43.854;2024-01-30T11:47:59;101399.38;;;2.74;67.98
73453;BME280;61687;56.232;43.854;2024-01-30T11:50:30;101411.03;;;2.69;68.21
73453;BME280;61687;56.232;43.854;2024-01-30T11:52:56;101410.44;;;2.78;68.02
73453;BME280;61687;56.232;43.854;2024-01-30T11:55:24;101419.22;;;2.64;68.19
73453;BME280;61687;56.232;43.854;2024-01-30T11:57:49;101418.84;;;2.76;68.25
73453;BME280;61687;56.232;43.854;2024-01-30T12:00:17;101422.56;;;2.80;67.76
73453;BME280;61687;56.232;43.854;2024-01-30T12:02:52;101419.97;;;2.94;67.63
73453;BME280;61687;56.232;43.854;2024-01-30T12:05:22;101426.50;;;2.93;67.73
73453;BME280;61687;56.232;43.854;2024-01-30T12:07:48;101424.09;;;2.92;67.78
73453;BME280;61687;56.232;43.854;2024-01-30T12:10:14;101420.19;;;2.74;67.87
73453;BME280;61687;56.232;43.854;2024-01-30T12:12:42;101428.09;;;2.70;68.04
73453;BME280;61687;56.232;43.854;2024-01-30T12:15:09;101426.44;;;2.74;67.76
73453;BME280;61687;56.232;43.854;2024-01-30T12:17:35;101427.59;;;2.68;68.09
73453;BME280;61687;56.232;43.854;2024-01-30T12:20:08;101427.78;;;2.47;68.01
73453;BME280;61687;56.232;43.854;2024-01-30T12:22:39;101425.78;;;2.58;68.19
73453;BME280;61687;56.232;43.854;2024-01-30T12:25:09;101435.31;;;2.50;68.47
73453;BME280;61687;56.232;43.854;2024-01-30T12:27:39;101426.88;;;2.57;67.88
73453;BME280;61687;56.232;43.854;2024-01-30T12:30:09;101432.47;;;2.66;67.73
73453;BME280;61687;56.232;43.854;2024-01-30T12:32:36;101425.34;;;2.75;67.68
73453;BME280;61687;56.232;43.854;2024-01-30T12:35:03;101423.34;;;2.56;67.92
73453;BME280;61687;56.232;43.854;2024-01-30T12:37:30;101427.53;;;2.43;68.38
73453;BME280;61687;56.232;43.854;2024-01-30T12:39:56;101428.94;;;2.36;68.56
73453;BME280;61687;56.232;43.854;2024-01-30T12:42:22;101442.22;;;1.97;69.58
73453;BME280;61687;56.232;43.854;2024-01-30T12:44:49;101443.28;;;1.96;69.65
73453;BME280;61687;56.232;43.854;2024-01-30T12:47:15;101443.84;;;1.93;69.81
73453;BME280;61687;56.232;43.854;2024-01-30T12:49:43;101454.72;;;1.88;70.04